createdAt,value
2023-08-04T00:00:31.436Z,99788.94
2023-08-04T00:02:58.778Z,99786.25
2023-08-04T00:05:25.709Z,99787.25
2023-08-04T00:07:52.469Z,99791.75
2023-08-04T00:10:19.651Z,99789.06
2023-08-04T00:12:47.259Z,99786.53
2023-08-04T00:15:14.241Z,99791.16
2023-08-04T00:17:41.127Z,99788.38
2023-08-04T00:20:10.111Z,99797.19
2023-08-04T00:22:36.939Z,99797.28
2023-08-04T00:25:04.324Z,99806.16
2023-08-04T00:27:31.220Z,99812.25
2023-08-04T00:29:57.937Z,99825.44
2023-08-04T00:32:24.743Z,99820.25
2023-08-04T00:34:51.585Z,99836.13
2023-08-04T00:37:18.377Z,99837.84
2023-08-04T00:39:45.177Z,99839.94
2023-08-04T00:42:12.079Z,99829.31
2023-08-04T00:44:38.839Z,99839.13
2023-08-04T00:47:06.607Z,99844.41
2023-08-04T00:49:33.941Z,99841.91
2023-08-04T00:52:00.858Z,99842.91
2023-08-04T00:54:27.546Z,99847.41
2023-08-04T00:56:55.552Z,99841.22
2023-08-04T00:59:22.383Z,99852.84
2023-08-04T01:01:50.959Z,99854.56
2023-08-04T01:04:19.781Z,99862.59
2023-08-04T01:07:10.310Z,99868.88
2023-08-04T01:09:45.473Z,99878.59
2023-08-04T01:12:36.809Z,99879.50
2023-08-04T01:15:04.101Z,99884.88
2023-08-04T01:17:33.140Z,99891.88
2023-08-04T01:20:00.324Z,99891.06
2023-08-04T01:22:27.410Z,99898.19
2023-08-04T01:24:55.401Z,99909.63
2023-08-04T01:27:42.989Z,99916.69
2023-08-04T01:30:13.743Z,99914.06
2023-08-04T01:32:40.638Z,99919.47
2023-08-04T01:35:08.785Z,99914.22
2023-08-04T01:37:35.595Z,99931.97
2023-08-04T01:40:02.829Z,99925.84
2023-08-04T01:42:29.570Z,99929.38
2023-08-04T01:44:56.423Z,99929.38
2023-08-04T01:47:23.174Z,99924.16
2023-08-04T01:49:49.909Z,99926.84
2023-08-04T01:52:16.840Z,99933.94
2023-08-04T01:54:43.675Z,99928.75
2023-08-04T01:57:10.516Z,99927.84
2023-08-04T01:59:37.241Z,99939.53
2023-08-04T02:02:04.225Z,99938.66
2023-08-04T02:04:30.936Z,99944.88
2023-08-04T02:06:57.705Z,99956.38
2023-08-04T02:09:26.947Z,99954.63
2023-08-04T02:11:53.729Z,99969.72
2023-08-04T02:14:20.496Z,99978.50
2023-08-04T02:16:47.243Z,99973.34
2023-08-04T02:19:13.900Z,99968.88
2023-08-04T02:21:40.645Z,99977.81
2023-08-04T02:24:07.441Z,99976.03
2023-08-04T02:26:34.251Z,99977.84
2023-08-04T02:29:01.133Z,99979.78
2023-08-04T02:31:29.855Z,99981.53
2023-08-04T02:33:56.699Z,99991.94
2023-08-04T02:36:23.388Z,100000.00
2023-08-04T02:38:50.188Z,100001.78
2023-08-04T02:41:16.957Z,100004.56
2023-08-04T02:43:43.861Z,100003.69
2023-08-04T02:46:14.116Z,100007.38
2023-08-04T02:48:41.619Z,100011.84
2023-08-04T02:51:09.121Z,100021.63
2023-08-04T02:53:36.901Z,100022.50
2023-08-04T02:56:14.598Z,100019.97
2023-08-04T02:58:42.976Z,100022.63
2023-08-04T03:01:10.171Z,100030.47
2023-08-04T03:03:36.995Z,100037.56
2023-08-04T03:06:04.022Z,100036.66
2023-08-04T03:08:32.622Z,100036.72
2023-08-04T03:10:59.969Z,100049.94
2023-08-04T03:13:27.368Z,100045.56
2023-08-04T03:16:01.948Z,100053.56
2023-08-04T03:18:29.192Z,100058.91
2023-08-04T03:20:56.314Z,100057.94
2023-08-04T03:23:23.336Z,100066.78
2023-08-04T03:25:50.249Z,100068.53
2023-08-04T03:28:17.168Z,100064.19
2023-08-04T03:30:43.973Z,100079.16
2023-08-04T03:33:10.752Z,100081.78
2023-08-04T03:35:37.632Z,100080.09
2023-08-04T03:38:05.093Z,100083.63
2023-08-04T03:40:31.851Z,100090.84
2023-08-04T03:42:59.146Z,100091.78
2023-08-04T03:45:26.038Z,100091.75
2023-08-04T03:47:53.033Z,100087.50
2023-08-04T03:50:20.036Z,100096.31
2023-08-04T03:52:46.783Z,100111.28
2023-08-04T03:55:13.477Z,100105.97
2023-08-04T03:57:40.226Z,100116.47
2023-08-04T04:00:07.776Z,100118.22
2023-08-04T04:02:34.893Z,100122.81
2023-08-04T04:05:01.947Z,100131.63
2023-08-04T04:07:28.637Z,100136.81
2023-08-04T04:09:55.448Z,100136.81
2023-08-04T04:12:22.144Z,100135.09
2023-08-04T04:14:48.855Z,100147.53
2023-08-04T04:17:15.587Z,100147.53
2023-08-04T04:19:42.357Z,100149.34
2023-08-04T04:22:10.482Z,100151.13
2023-08-04T04:24:37.350Z,100147.66
2023-08-04T04:27:04.253Z,100154.63
2023-08-04T04:29:31.095Z,100164.38
2023-08-04T04:31:57.744Z,100170.63
2023-08-04T04:34:24.641Z,100167.00
2023-08-04T04:36:51.405Z,100182.94
2023-08-04T04:39:18.147Z,100182.06
2023-08-04T04:41:45.108Z,100195.41
2023-08-04T04:44:12.257Z,100190.09
2023-08-04T04:46:38.927Z,100194.63
2023-08-04T04:49:05.744Z,100196.34
2023-08-04T04:51:32.512Z,100208.78
2023-08-04T04:53:59.226Z,100209.75
2023-08-04T04:56:25.872Z,100219.38
2023-08-04T04:58:52.613Z,100222.84
2023-08-04T05:01:19.522Z,100226.34
2023-08-04T05:03:46.283Z,100239.66
2023-08-04T05:06:12.967Z,100242.22
2023-08-04T05:08:39.749Z,100237.84
2023-08-04T05:11:06.500Z,100256.38
2023-08-04T05:13:33.335Z,100261.66
2023-08-04T05:16:00.081Z,100263.47
2023-08-04T05:18:27.250Z,100270.50
2023-08-04T05:20:53.885Z,100282.81
2023-08-04T05:23:20.571Z,100296.88
2023-08-04T05:25:47.412Z,100290.59
2023-08-04T05:28:21.596Z,100316.03
2023-08-04T05:30:48.805Z,100305.38
2023-08-04T05:33:15.546Z,100295.81
2023-08-04T05:35:46.176Z,100294.91
2023-08-04T05:38:14.073Z,100295.00
2023-08-04T05:40:43.743Z,100293.13
2023-08-04T05:43:11.475Z,100312.56
2023-08-04T05:45:39.502Z,100307.09
2023-08-04T05:48:06.608Z,100298.41
2023-08-04T05:50:33.649Z,100296.72
2023-08-04T05:53:00.895Z,100299.31
2023-08-04T05:55:27.732Z,100310.75
2023-08-04T05:57:56.301Z,100306.31
2023-08-04T06:00:23.974Z,100304.50
2023-08-04T06:02:51.082Z,100303.59
2023-08-04T06:05:18.196Z,100312.50
2023-08-04T06:07:45.488Z,100317.78
2023-08-04T06:10:12.635Z,100309.81
2023-08-04T06:12:39.806Z,100294.13
2023-08-04T06:15:07.008Z,100321.28
2023-08-04T06:17:33.808Z,100323.09
2023-08-04T06:20:00.724Z,100322.31
2023-08-04T06:22:27.465Z,100322.28
2023-08-04T06:24:54.283Z,100328.44
2023-08-04T06:27:21.001Z,100304.69
2023-08-04T06:29:47.874Z,100320.66
2023-08-04T06:32:14.704Z,100304.03
2023-08-04T06:34:41.471Z,100307.56
2023-08-04T06:37:08.248Z,100312.88
2023-08-04T06:39:39.005Z,100300.78
2023-08-04T06:42:05.851Z,100304.28
2023-08-04T06:44:32.576Z,100297.31
2023-08-04T06:46:59.383Z,100322.84
2023-08-04T06:49:26.081Z,100327.19
2023-08-04T06:51:53.022Z,100331.69
2023-08-04T06:54:20.444Z,100326.50
2023-08-04T06:56:47.135Z,100334.41
2023-08-04T06:59:13.940Z,100329.22
2023-08-04T07:01:40.657Z,100320.53
2023-08-04T07:04:07.406Z,100330.22
2023-08-04T07:06:34.159Z,100343.50
2023-08-04T07:09:00.904Z,100336.59
2023-08-04T07:11:27.680Z,100339.25
2023-08-04T07:13:54.383Z,100352.53
2023-08-04T07:16:21.442Z,100325.34
2023-08-04T07:18:48.359Z,100345.69
2023-08-04T07:21:15.806Z,100357.03
2023-08-04T07:23:43.173Z,100349.25
2023-08-04T07:26:10.655Z,100351.97
2023-08-04T07:28:38.068Z,100359.06
2023-08-04T07:31:08.542Z,100338.91
2023-08-04T07:33:36.088Z,100342.53
2023-08-04T07:36:04.063Z,100358.41
2023-08-04T07:38:37.605Z,100363.53
2023-08-04T07:41:04.417Z,100372.50
2023-08-04T07:43:31.198Z,100379.63
2023-08-04T07:45:58.021Z,100384.91
2023-08-04T07:48:24.833Z,100388.47
2023-08-04T07:50:52.672Z,100399.88
2023-08-04T07:53:19.819Z,100409.50
2023-08-04T07:55:57.588Z,100424.44
2023-08-04T07:58:24.892Z,100431.47
2023-08-04T08:00:51.902Z,100436.63
2023-08-04T08:03:19.437Z,100412.19
2023-08-04T08:05:46.331Z,100405.91
2023-08-04T08:08:14.403Z,100420.00
2023-08-04T08:10:41.207Z,100422.69
2023-08-04T08:13:08.558Z,100435.91
2023-08-04T08:15:37.131Z,100442.81
2023-08-04T08:18:04.551Z,100446.41
2023-08-04T08:20:31.476Z,100456.84
2023-08-04T08:22:58.281Z,100451.50
2023-08-04T08:25:25.082Z,100469.09
2023-08-04T08:27:52.490Z,100461.13
2023-08-04T08:30:19.417Z,100442.63
2023-08-04T08:32:46.455Z,100429.44
2023-08-04T08:35:13.210Z,100453.97
2023-08-04T08:37:40.078Z,100437.31
2023-08-04T08:40:07.389Z,100451.56
2023-08-04T08:42:35.371Z,100451.47
2023-08-04T08:45:02.866Z,100446.16
2023-08-04T08:47:39.608Z,100437.28
2023-08-04T08:50:07.963Z,100452.28
2023-08-04T08:52:39.698Z,100467.09
2023-08-04T08:55:07.435Z,100439.75
2023-08-04T08:57:34.614Z,100454.59
2023-08-04T09:00:02.101Z,100440.47
2023-08-04T09:02:29.358Z,100437.94
2023-08-04T09:04:56.259Z,100429.91
2023-08-04T09:07:24.480Z,100448.34
2023-08-04T09:09:51.462Z,100430.00
2023-08-04T09:12:18.355Z,100440.53
2023-08-04T09:14:48.657Z,100439.63
2023-08-04T09:17:34.403Z,100446.66
2023-08-04T09:20:06.708Z,100446.66
2023-08-04T09:22:38.551Z,100437.09
2023-08-04T09:25:06.408Z,100441.44
2023-08-04T09:27:35.695Z,100437.94
2023-08-04T09:30:04.364Z,100423.97
2023-08-04T09:32:32.812Z,100455.69
2023-08-04T09:35:07.132Z,100452.13
2023-08-04T09:37:35.333Z,100445.13
2023-08-04T09:40:12.983Z,100452.13
2023-08-04T09:42:41.477Z,100434.56
2023-08-04T09:45:09.560Z,100457.41
2023-08-04T09:47:36.349Z,100460.16
2023-08-04T09:50:10.390Z,100471.50
2023-08-04T09:52:37.288Z,100473.25
2023-08-04T09:55:04.339Z,100481.19
2023-08-04T09:57:31.035Z,100480.38
2023-08-04T09:59:58.194Z,100485.69
2023-08-04T10:02:25.210Z,100492.66
2023-08-04T10:04:52.930Z,100505.72
2023-08-04T10:07:20.315Z,100505.72
2023-08-04T10:09:49.962Z,100503.88
2023-08-04T10:12:18.455Z,100508.28
2023-08-04T10:14:45.618Z,100517.84
2023-08-04T10:17:12.817Z,100526.44
2023-08-04T10:19:39.874Z,100513.09
2023-08-04T10:22:10.735Z,100491.94
2023-08-04T10:24:43.478Z,100517.03
2023-08-04T10:27:20.489Z,100531.28
2023-08-04T10:30:01.904Z,100544.03
2023-08-04T10:32:36.464Z,100508.94
2023-08-04T10:35:06.725Z,100480.63
2023-08-04T10:37:47.673Z,100480.41
2023-08-04T10:40:14.654Z,100474.81
2023-08-04T10:43:01.096Z,100461.47
2023-08-04T10:45:50.536Z,100443.25
2023-08-04T10:48:19.639Z,100423.00
2023-08-04T10:50:46.687Z,100422.09
2023-08-04T10:53:13.748Z,100456.94
2023-08-04T10:55:52.455Z,100465.38
2023-08-04T10:58:19.584Z,100446.50
2023-08-04T11:00:46.512Z,100424.78
2023-08-04T11:03:39.595Z,100418.72
2023-08-04T11:06:06.628Z,100436.91
2023-08-04T11:08:33.472Z,100396.84
2023-08-04T11:11:00.253Z,100362.53
2023-08-04T11:13:27.766Z,100325.22
2023-08-04T11:15:54.987Z,100358.69
2023-08-04T11:18:24.861Z,100370.00
2023-08-04T11:20:52.152Z,100396.13
2023-08-04T11:23:29.579Z,100395.31
2023-08-04T11:25:58.634Z,100348.97
2023-08-04T11:28:26.616Z,100348.06
2023-08-04T11:31:02.309Z,100392.28
2023-08-04T11:33:29.148Z,100358.94
2023-08-04T11:35:55.921Z,100363.94
2023-08-04T11:38:22.804Z,100381.84
2023-08-04T11:40:58.011Z,100363.22
2023-08-04T11:43:25.345Z,100358.44
2023-08-04T11:45:52.703Z,100385.41
2023-08-04T11:48:20.503Z,100328.34
2023-08-04T11:50:50.387Z,100346.16
2023-08-04T11:53:17.386Z,100322.94
2023-08-04T11:56:00.494Z,100318.13
2023-08-04T11:58:35.602Z,100331.91
2023-08-04T12:01:03.714Z,100322.81
2023-08-04T12:03:47.241Z,100302.38
2023-08-04T12:06:35.502Z,100281.31
2023-08-04T12:09:05.579Z,100268.56
2023-08-04T12:11:32.462Z,100270.38
2023-08-04T12:14:12.348Z,100278.22
2023-08-04T12:16:56.041Z,100243.59
2023-08-04T12:19:24.498Z,100206.25
2023-08-04T12:21:52.551Z,100192.31
2023-08-04T12:24:20.313Z,100152.34
2023-08-04T12:26:47.334Z,100186.31
2023-08-04T12:29:14.607Z,100176.44
2023-08-04T12:31:41.743Z,100178.09
2023-08-04T12:34:10.538Z,100146.22
2023-08-04T12:36:37.840Z,100088.66
2023-08-04T12:39:05.634Z,100098.75
2023-08-04T12:41:33.300Z,100077.34
2023-08-04T12:44:00.301Z,100047.50
2023-08-04T12:46:30.424Z,100041.50
2023-08-04T12:48:58.132Z,100106.34
2023-08-04T12:51:25.513Z,100022.75
2023-08-04T12:53:52.306Z,100021.84
2023-08-04T12:56:19.631Z,100064.69
2023-08-04T12:58:46.413Z,99981.38
2023-08-04T13:01:13.266Z,99881.53
2023-08-04T13:03:40.075Z,100005.34
2023-08-04T13:06:06.961Z,99918.03
2023-08-04T13:08:33.638Z,99951.97
2023-08-04T13:11:01.170Z,99935.25
2023-08-04T13:13:28.084Z,99854.91
2023-08-04T13:15:54.903Z,99747.47
2023-08-04T13:18:21.641Z,99676.22
2023-08-04T13:20:50.855Z,99767.19
2023-08-04T13:23:18.034Z,99758.47
2023-08-04T13:25:45.024Z,99633.63
2023-08-04T13:28:12.247Z,99630.22
2023-08-04T13:30:39.477Z,99665.75
2023-08-04T13:33:06.358Z,99600.94
2023-08-04T13:35:33.133Z,99487.78
2023-08-04T13:38:00.193Z,99573.81
2023-08-04T13:40:26.971Z,99606.88
2023-08-04T13:42:54.069Z,99532.22
2023-08-04T13:45:20.704Z,99616.53
2023-08-04T13:47:49.003Z,99757.63
2023-08-04T13:50:15.994Z,99555.31
2023-08-04T13:52:42.805Z,99491.91
2023-08-04T13:55:09.608Z,99479.06
2023-08-04T13:57:41.775Z,99567.22
2023-08-04T14:00:10.939Z,99390.03
2023-08-04T14:02:38.063Z,99472.06
2023-08-04T14:05:05.262Z,99507.38
2023-08-04T14:07:32.013Z,99466.94
2023-08-04T14:09:58.686Z,99433.31
2023-08-04T14:12:32.478Z,99442.84
2023-08-04T14:14:59.416Z,99481.88
2023-08-04T14:17:27.124Z,99510.09
2023-08-04T14:19:55.184Z,99418.59
2023-08-04T14:22:22.209Z,99392.84
2023-08-04T14:24:49.092Z,99237.69
2023-08-04T14:27:28.610Z,99249.56
2023-08-04T14:29:58.488Z,99281.16
2023-08-04T14:32:25.413Z,99291.81
2023-08-04T14:34:52.238Z,99214.28
2023-08-04T14:37:19.179Z,99140.09
2023-08-04T14:39:45.931Z,99234.63
2023-08-04T14:42:12.730Z,99195.78
2023-08-04T14:44:39.481Z,99267.94
2023-08-04T14:47:06.882Z,99188.19
2023-08-04T14:49:34.172Z,99129.44
2023-08-04T14:52:01.005Z,99168.50
2023-08-04T14:54:27.879Z,99201.16
2023-08-04T14:56:54.821Z,99237.81
2023-08-04T14:59:21.891Z,99251.31
2023-08-04T15:01:49.262Z,99197.31
2023-08-04T15:04:16.338Z,99187.56
2023-08-04T15:06:44.211Z,99179.75
2023-08-04T15:09:11.091Z,99194.50
2023-08-04T15:11:37.983Z,99167.91
2023-08-04T15:14:04.974Z,99178.31
2023-08-04T15:16:31.801Z,99132.41
2023-08-04T15:18:58.627Z,99090.06
2023-08-04T15:21:25.461Z,99094.75
2023-08-04T15:23:52.340Z,99086.56
2023-08-04T15:26:19.202Z,99019.22
2023-08-04T15:28:50.861Z,98922.31
2023-08-04T15:31:17.741Z,98913.00
2023-08-04T15:33:44.558Z,98908.22
2023-08-04T15:36:11.751Z,98885.63
2023-08-04T15:38:39.133Z,98889.56
2023-08-04T15:41:07.913Z,98909.97
2023-08-04T15:43:39.701Z,98920.38
2023-08-04T15:46:07.225Z,98916.47
2023-08-04T15:48:35.548Z,98971.44
2023-08-04T15:51:02.285Z,98894.16
2023-08-04T15:53:29.611Z,98958.06
2023-08-04T15:55:57.278Z,99003.84
2023-08-04T15:58:24.671Z,98983.09
2023-08-04T16:00:51.465Z,98990.22
2023-08-04T16:03:18.460Z,99093.81
2023-08-04T16:05:45.556Z,99086.69
2023-08-04T16:08:12.445Z,99043.06
2023-08-04T16:10:39.325Z,99038.13
2023-08-04T16:13:06.092Z,99068.84
2023-08-04T16:15:32.843Z,99048.03
2023-08-04T16:17:59.648Z,99042.56
2023-08-04T16:20:26.561Z,99101.91
2023-08-04T16:22:53.359Z,99107.72
2023-08-04T16:25:20.756Z,99076.75
2023-08-04T16:27:48.255Z,99078.47
2023-08-04T16:30:15.178Z,99111.63
2023-08-04T16:32:47.464Z,99103.28
2023-08-04T16:35:14.752Z,99090.03
2023-08-04T16:37:41.985Z,99124.63
2023-08-04T16:40:11.180Z,99130.38
2023-08-04T16:42:38.183Z,99090.41
2023-08-04T16:45:05.827Z,99132.25
2023-08-04T16:47:34.920Z,99110.44
2023-08-04T16:50:06.045Z,99124.91
2023-08-04T16:52:34.044Z,99148.84
2023-08-04T16:55:13.185Z,99140.50
2023-08-04T16:57:40.566Z,99161.47
2023-08-04T17:00:11.205Z,99172.84
2023-08-04T17:02:41.540Z,99186.81
2023-08-04T17:05:09.352Z,99184.31
2023-08-04T17:07:43.938Z,99167.81
2023-08-04T17:10:11.213Z,99167.88
2023-08-04T17:12:41.606Z,99206.34
2023-08-04T17:15:10.935Z,99174.03
2023-08-04T17:17:38.370Z,99169.06
2023-08-04T17:20:25.775Z,99180.38
2023-08-04T17:22:56.089Z,99187.03
2023-08-04T17:25:27.905Z,99209.94
2023-08-04T17:27:57.159Z,99199.16
2023-08-04T17:30:25.038Z,99219.34
2023-08-04T17:32:56.083Z,99215.94
2023-08-04T17:35:26.644Z,99186.38
2023-08-04T17:37:53.674Z,99201.69
2023-08-04T17:40:20.636Z,99210.47
2023-08-04T17:42:47.409Z,99239.16
2023-08-04T17:45:14.320Z,99240.25
2023-08-04T17:47:41.264Z,99255.75
2023-08-04T17:50:08.615Z,99263.97
2023-08-04T17:52:35.370Z,99280.09
2023-08-04T17:55:02.422Z,99291.19
2023-08-04T17:57:29.902Z,99258.66
2023-08-04T17:59:56.864Z,99269.81
2023-08-04T18:02:24.765Z,99282.22
2023-08-04T18:04:51.972Z,99306.78
2023-08-04T18:07:18.825Z,99325.66
2023-08-04T18:09:45.633Z,99311.03
2023-08-04T18:12:12.468Z,99281.41
2023-08-04T18:14:39.334Z,99319.72
2023-08-04T18:17:06.290Z,99331.03
2023-08-04T18:19:33.476Z,99334.56
2023-08-04T18:22:00.438Z,99325.41
2023-08-04T18:24:27.403Z,99340.94
2023-08-04T18:26:54.208Z,99329.53
2023-08-04T18:29:22.735Z,99303.91
2023-08-04T18:31:50.139Z,99309.91
2023-08-04T18:34:16.956Z,99336.81
2023-08-04T18:36:43.827Z,99356.31
2023-08-04T18:39:10.728Z,99377.81
2023-08-04T18:41:37.648Z,99379.63
2023-08-04T18:44:09.493Z,99401.34
2023-08-04T18:46:36.862Z,99407.25
2023-08-04T18:49:03.753Z,99409.28
2023-08-04T18:51:30.553Z,99410.22
2023-08-04T18:53:57.370Z,99416.84
2023-08-04T18:56:25.845Z,99420.25
2023-08-04T18:58:52.685Z,99411.38
2023-08-04T19:01:19.651Z,99416.06
2023-08-04T19:03:46.574Z,99445.97
2023-08-04T19:06:13.783Z,99478.16
2023-08-04T19:08:40.652Z,99478.31
2023-08-04T19:11:07.848Z,99501.50
2023-08-04T19:13:35.056Z,99508.56
2023-08-04T19:16:09.970Z,99527.41
2023-08-04T19:18:41.679Z,99514.31
2023-08-04T19:21:20.104Z,99503.56
2023-08-04T19:24:10.432Z,99494.53
2023-08-04T19:26:49.491Z,99514.09
2023-08-04T19:29:16.516Z,99523.09
2023-08-04T19:31:43.268Z,99520.44
2023-08-04T19:34:10.110Z,99526.94
2023-08-04T19:36:37.229Z,99543.50
2023-08-04T19:39:04.407Z,99528.41
2023-08-04T19:41:31.670Z,99524.50
2023-08-04T19:43:59.052Z,99532.72
2023-08-04T19:46:26.572Z,99529.56
2023-08-04T19:48:53.754Z,99539.53
2023-08-04T19:51:20.953Z,99523.88
2023-08-04T19:53:48.613Z,99531.03
2023-08-04T19:56:16.044Z,99538.03
2023-08-04T19:58:43.256Z,99560.63
2023-08-04T20:01:13.375Z,99550.09
2023-08-04T20:03:46.334Z,99573.22
2023-08-04T20:06:18.685Z,99586.38
2023-08-04T20:08:50.536Z,99598.78
2023-08-04T20:11:20.176Z,99622.84
2023-08-04T20:13:53.894Z,99623.88
2023-08-04T20:16:33.081Z,99645.16
2023-08-04T20:19:07.881Z,99660.41
2023-08-04T20:21:34.979Z,99667.03
2023-08-04T20:24:05.287Z,99680.38
2023-08-04T20:26:40.863Z,99693.66
2023-08-04T20:29:07.912Z,99708.41
2023-08-04T20:31:36.569Z,99727.50
2023-08-04T20:34:03.435Z,99760.38
2023-08-04T20:36:30.349Z,99766.97
2023-08-04T20:38:57.141Z,99787.47
2023-08-04T20:41:23.908Z,99815.22
2023-08-04T20:43:50.868Z,99813.56
2023-08-04T20:46:21.502Z,99839.47
2023-08-04T20:48:48.569Z,99848.47
2023-08-04T20:51:15.317Z,99859.13
2023-08-04T20:53:42.334Z,99865.31
2023-08-04T20:56:09.281Z,99869.88
2023-08-04T20:58:38.818Z,99878.25
2023-08-04T21:01:09.438Z,99886.25
2023-08-04T21:03:36.725Z,99897.13
2023-08-04T21:06:07.375Z,99885.56
2023-08-04T21:08:34.399Z,99905.06
2023-08-04T21:11:02.423Z,99928.53
2023-08-04T21:13:30.800Z,99951.88
2023-08-04T21:15:57.687Z,99965.28
2023-08-04T21:18:24.585Z,99989.63
2023-08-04T21:20:51.422Z,100003.94
2023-08-04T21:23:25.491Z,100004.72
2023-08-04T21:25:54.023Z,100016.44
2023-08-04T21:28:20.827Z,100032.66
2023-08-04T21:30:52.777Z,100024.69
2023-08-04T21:33:20.104Z,100022.13
2023-08-04T21:35:47.055Z,100031.69
2023-08-04T21:38:13.718Z,100025.34
2023-08-04T21:40:40.469Z,100004.72
2023-08-04T21:43:07.141Z,100002.97
2023-08-04T21:45:33.942Z,99978.19
2023-08-04T21:48:00.726Z,99974.63
2023-08-04T21:50:31.930Z,99970.09
2023-08-04T21:52:58.617Z,99955.13
2023-08-04T21:55:25.382Z,99952.63
2023-08-04T21:57:52.139Z,99941.06
2023-08-04T22:00:23.679Z,99949.94
2023-08-04T22:02:51.468Z,99943.81
2023-08-04T22:05:18.652Z,99950.00
2023-08-04T22:07:45.482Z,99950.13
2023-08-04T22:10:12.868Z,99950.09
2023-08-04T22:12:40.229Z,99949.19
2023-08-04T22:15:07.670Z,99963.53
2023-08-04T22:17:34.401Z,99957.41
2023-08-04T22:20:01.182Z,99956.53
2023-08-04T22:22:27.934Z,99962.75
2023-08-04T22:24:54.710Z,99945.09
2023-08-04T22:27:21.457Z,99952.34
2023-08-04T22:29:48.302Z,99942.50
2023-08-04T22:32:15.368Z,99933.50
2023-08-04T22:34:42.136Z,99933.56
2023-08-04T22:37:08.952Z,99928.25
2023-08-04T22:39:35.953Z,99921.31
2023-08-04T22:42:02.830Z,99911.59
2023-08-04T22:44:29.781Z,99915.97
2023-08-04T22:46:56.646Z,99915.13
2023-08-04T22:49:23.531Z,99926.78
2023-08-04T22:51:50.284Z,99929.47
2023-08-04T22:54:32.370Z,99921.66
2023-08-04T22:57:00.503Z,99917.22
2023-08-04T22:59:27.234Z,99909.25
2023-08-04T23:01:54.041Z,99906.56
2023-08-04T23:04:20.889Z,99899.38
2023-08-04T23:06:47.880Z,99887.00
2023-08-04T23:09:15.103Z,99885.28
2023-08-04T23:11:41.828Z,99877.34
2023-08-04T23:14:08.875Z,99865.66
2023-08-04T23:16:35.556Z,99858.75
2023-08-04T23:19:02.394Z,99855.22
2023-08-04T23:21:29.135Z,99856.16
2023-08-04T23:23:56.036Z,99841.00
2023-08-04T23:26:22.996Z,99838.44
2023-08-04T23:28:49.809Z,99826.94
2023-08-04T23:31:16.803Z,99839.56
2023-08-04T23:33:43.633Z,99845.84
2023-08-04T23:36:10.377Z,99860.00
2023-08-04T23:38:37.195Z,99870.81
2023-08-04T23:41:04.217Z,99870.91
2023-08-04T23:43:31.000Z,99871.88
2023-08-04T23:45:57.792Z,99864.75
2023-08-04T23:48:24.647Z,99868.44
2023-08-04T23:50:51.445Z,99872.25
2023-08-04T23:53:19.845Z,99882.16
2023-08-04T23:55:46.694Z,99884.81
2023-08-04T23:58:13.428Z,99884.91
